カーブル の空港の天気 - METARとTAF

カーブル国際空港 ( OAKB / KBL ) - アフガニスタン カーブル
飛行場実況気象(Metar)
観測時間02/17 19:20 AFT (02/17 14:50 UTC)
風向・風速南南東 1m/s
視程1600m
天気現象弱い雪 もや
全天の4割程度の雲 雲底高度 60m
全天を覆う雲 雲底高度 180m
気温0℃
湿度100%
気圧1014hPa
METAROAKB 171450Z 15002KT 1600 0800S -SN BR SCT002 OVC006 00/M00 Q1014 NOSIG RMK A2997 R1129//94 YLO YLO
過去の天気等 Google飛行場航空写真 Wunderground天気予報

過去48時間のMETAR

飛行場予報(TAF)
発表時間: 2/17 15:35 AFT (2/17 11:05 UTC)
予報対象時間: 17日16時 AFT ~ 18日16時 AFT
風向・風速不定 1m/s
視程2500m
天気現象弱い雪 もや
全天の4割程度の雲 雲底高度 150m
全天を覆う雲 雲底高度 370m
17日16時 AFT ~ 17日20時 AFT に一時的に
視程800m
天気現象雪 霧
全天の8割程度の雲 雲底高度 150m
全天を覆う雲 雲底高度 370m
18日0時 AFT ~ 18日2時 AFT に徐々に
視程2000m
天気現象もや
全天の8割程度の雲 雲底高度 460m
全天を覆う雲 雲底高度 760m
18日4時 AFT ~ 18日8時 AFT に一時的に
視程800m
天気現象
全天の4割程度の雲 雲底高度 150m
全天を覆う雲 雲底高度 300m
18日10時 AFT ~ 18日12時 AFT に徐々に
視程6000m
全天の4割程度の雲 雲底高度 300m
全天の8割程度の雲 雲底高度 610m
TAF OAKB 171105Z 1712/1812 VRB02KT 2500 -SN BR SCT005 OVC012
TEMPO 1712/1716 0800 SN FG BKN005 OVC012
BECMG 1720/1722 2000 BR BKN015 OVC025
TEMPO 1800/1804 0800 FG SCT005 OVC010
BECMG 1806/1808 6000 SCT010 BKN020